Lähimpiä lentokenttien sääasemia

 

EFHK - Helsinki/Vantaa, Finland
Ilmasuunta ja etäisyys Sääasema Bassenraitista: KO 24km
Päivitetty: 06/02/2023 21:50
Selkeätä
Selkeätä
 Tuulen suunta LLO
Tuuli: LLO 7 km/h
Lämpötila: -6°C
Hyytävyys: -10°C
Kastepiste: -6°C
Kosteus: 100%
Ilmanpaine: 1033 hPa
Yhteenveto: Selkeätä
Näkyvyys: enemmän kuin 10 km
2023/02/06 19:50 EFHK 061950Z 24004KT 230V290 CAVOK M06/M06 Q1033 NOSIG
EETN - Tallinn, Estonia
Ilmasuunta ja etäisyys Sääasema Bassenraitista: E 89km
Päivitetty: 06/02/2023 21:50
Patches of fog, Puolipilvistä
Patches of fog, Puolipilvistä
 Tuulen suunta varies
Tuuli: varies 2 km/h
Lämpötila: -4°C
Kastepiste: -5°C
Kosteus: 93%
Ilmanpaine: 1033 hPa
Yhteenveto: Patches of Fog
Pilvet: Puolipilvistä
Näkyvyys: 10 km
2023/02/06 19:50 EETN 061950Z VRB01KT 9999 0600E R26/P2000N BCFG NSC M04/M05 Q1033 NOSIG
 
EFTU - Turku/Abo, Finland
Ilmasuunta ja etäisyys Sääasema Bassenraitista: LLU 133km
Päivitetty: 06/02/2023 21:50
Puolipilvistä
Puolipilvistä
 Tuulen suunta L
Tuuli: L 9 km/h
Lämpötila: -3°C
Hyytävyys: -7°C
Kastepiste: -4°C
Kosteus: 93%
Ilmanpaine: 1033 hPa
Pilvet: Puolipilvistä
Näkyvyys: 6 km
2023/02/06 19:50 EFTU 061950Z AUTO 26005KT 6000 NSC M03/M04 Q1033
EFTP - Tampere/Pirkkala, Finland
Ilmasuunta ja etäisyys Sääasema Bassenraitista: PLU 146km
Päivitetty: 06/02/2023 21:50
Vaihetelvaa
Vaihetelvaa
 Tuulen suunta ELO
Tuuli: ELO 6 km/h
Lämpötila: -3°C
Kastepiste: -4°C
Kosteus: 93%
Ilmanpaine: 1031 hPa
Pilvet: Vaihetelvaa
Näkyvyys: 10 km
Pilvitiedot: Vaihetelvaa 61 m
2023/02/06 19:50 EFTP 061950Z AUTO 20003KT 9999 OVC002 M03/M04 Q1031 REFZUP
 
EFUT - Utti (fin-Afb), Finland
Ilmasuunta ja etäisyys Sääasema Bassenraitista: IKO 148km
Päivitetty: 06/02/2023 21:50
Patches of fog, Selkeätä
Patches of fog, Selkeätä
 Tuulen suunta LO
Tuuli: LO 4 km/h
Lämpötila: -7°C
Kastepiste: -7°C
Kosteus: 100%
Ilmanpaine: 1031 hPa
Yhteenveto: Patches of Fog
Pilvet: Selkeätä
Näkyvyys: 1 km
2023/02/06 19:50 EFUT 061950Z AUTO 23002KT 0600 R25/0900 BCFG NCD M07/M07 Q1031
EEKA - Kardla, Estonia
Ilmasuunta ja etäisyys Sääasema Bassenraitista: LO 168km
Päivitetty: 06/02/2023 18:20
NOT Current
Selkeätä
Selkeätä
 Tuulen suunta LLU
Tuuli: LLU 7 km/h
Lämpötila: 0°C
Hyytävyys: -3°C
Kastepiste: -1°C
Kosteus: 93%
Ilmanpaine: 1034 hPa
Yhteenveto: Selkeätä
Näkyvyys: enemmän kuin 10 km
2023/02/06 16:20 EEKA 061620Z 30004KT 250V350 CAVOK 00/M01 Q1034
 
EFHA - Halli (fin-Afb), Finland
Ilmasuunta ja etäisyys Sääasema Bassenraitista: P 184km
Päivitetty: 06/02/2023 21:50
Selkeätä
Selkeätä
 Tuulen suunta EKA
Tuuli: EKA 7 km/h
Lämpötila: -7°C
Hyytävyys: -11°C
Kastepiste: -7°C
Kosteus: 100%
Ilmanpaine: 1031 hPa
Yhteenveto: Selkeätä
Näkyvyys: enemmän kuin 10 km
2023/02/06 19:50 EFHA 061950Z AUTO 15004KT CAVOK M07/M07 Q1031
EEPU - Parnu, Estonia
Ilmasuunta ja etäisyys Sääasema Bassenraitista: E 198km
Päivitetty: 06/02/2023 21:50
Selkeätä
Selkeätä
 Tuulen suunta varies
Tuuli: varies 4 km/h
Lämpötila: -2°C
Kastepiste: -3°C
Kosteus: 93%
Ilmanpaine: 1034 hPa
Pilvet: Selkeätä
Näkyvyys: 10 km
2023/02/06 19:50 EEPU 061950Z AUTO VRB02KT 9999 NCD M02/M03 Q1034
 
EFPO - Pori (mil/Civ), Finland
Ilmasuunta ja etäisyys Sääasema Bassenraitista: LU 207km
Päivitetty: 06/02/2023 21:50
Nearby showers, Thunderstorm
Nearby showers, Thunderstorm
 Tuulen suunta LO
Tuuli: LO 9 km/h
Lämpötila: 0°C
Hyytävyys: -3°C
Kastepiste: -1°C
Kosteus: 93%
Ilmanpaine: 1032 hPa
Yhteenveto: Nearby Showers
Pilvet: Thunderstorm
Näkyvyys: 10 km
2023/02/06 19:50 EFPO 061950Z AUTO 22005KT 190V250 9999 VCSH //////CB M00/M01 Q1032
EFLP - Lappeenranta, Finland
Ilmasuunta ja etäisyys Sääasema Bassenraitista: IKO 215km
Päivitetty: 06/02/2023 21:50
Selkeätä
Selkeätä
 Tuulen suunta LU
Tuuli: LU 6 km/h
Lämpötila: -7°C
Kastepiste: -8°C
Kosteus: 93%
Ilmanpaine: 1031 hPa
Yhteenveto: Selkeätä
Näkyvyys: enemmän kuin 10 km
2023/02/06 19:50 EFLP 061950Z AUTO 32003KT CAVOK M07/M08 Q1031
 
EFMI - Mikkeli, Finland
Ilmasuunta ja etäisyys Sääasema Bassenraitista: KO 217km
Päivitetty: 06/02/2023 21:50
Selkeätä
Selkeätä
 Tuulen suunta calm
Tuuli: Tyyntä
Lämpötila: -11°C
Kastepiste: -12°C
Kosteus: 92%
Ilmanpaine: 1031 hPa
Yhteenveto: Selkeätä
Näkyvyys: enemmän kuin 10 km
2023/02/06 19:50 EFMI 061950Z AUTO 00000KT CAVOK M11/M12 Q1031
EETU - Tartu, Estonia
Ilmasuunta ja etäisyys Sääasema Bassenraitista: EKA 240km
Päivitetty: 06/02/2023 21:50
Vaihetelvaa
Vaihetelvaa
 Tuulen suunta PLU
Tuuli: PLU 9 km/h
Lämpötila: -1°C
Hyytävyys: -4°C
Kastepiste: -3°C
Kosteus: 86%
Ilmanpaine: 1033 hPa
Pilvet: Vaihetelvaa
Näkyvyys: 10 km
Pilvitiedot: Vaihetelvaa 396 m
2023/02/06 19:50 EETU 061950Z AUTO 33005KT 9999 OVC013/// M01/M03 Q1033
 
EEKE - Kuressaare, Estonia
Ilmasuunta ja etäisyys Sääasema Bassenraitista: ELO 249km
Päivitetty: 06/02/2023 21:50
Selkeätä
Selkeätä
 Tuulen suunta LU
Tuuli: LU 9 km/h
Lämpötila: -1°C
Hyytävyys: -4°C
Kastepiste: -1°C
Kosteus: 100%
Ilmanpaine: 1036 hPa
Pilvet: Selkeätä
Näkyvyys: 10 km
2023/02/06 19:50 EEKE 061950Z AUTO 31005KT 9999NDV NCD M01/M01 Q1036
EFJY - Jyvaskyla (mil/C, Finland
Ilmasuunta ja etäisyys Sääasema Bassenraitista: PKO 252km
Päivitetty: 06/02/2023 21:50
Selkeätä
Selkeätä
 Tuulen suunta varies
Tuuli: varies 4 km/h
Lämpötila: -9°C
Kastepiste: -10°C
Kosteus: 93%
Ilmanpaine: 1030 hPa
Yhteenveto: Selkeätä
Näkyvyys: enemmän kuin 10 km
2023/02/06 19:50 EFJY 061950Z AUTO VRB02KT CAVOK M09/M10 Q1030
 
EFMA - Mariehamn/Aland, Finland
Ilmasuunta ja etäisyys Sääasema Bassenraitista: L 261km
Päivitetty: 06/02/2023 21:50
Selkeätä
Selkeätä
 Tuulen suunta ELO
Tuuli: ELO 13 km/h
Lämpötila: 0°C
Hyytävyys: -4°C
Kastepiste: -2°C
Kosteus: 87%
Ilmanpaine: 1034 hPa
Yhteenveto: Selkeätä
Näkyvyys: enemmän kuin 10 km
2023/02/06 19:50 EFMA 061950Z AUTO 21007KT CAVOK M00/M02 Q1034
EFSI - Seinajoki-Ilmajo, Finland
Ilmasuunta ja etäisyys Sääasema Bassenraitista: PLU 294km
Päivitetty: 06/02/2023 21:50
Selkeätä
Selkeätä
 Tuulen suunta ELO
Tuuli: ELO 9 km/h
Lämpötila: 0°C
Hyytävyys: -3°C
Kastepiste: -2°C
Kosteus: 87%
Ilmanpaine: 1029 hPa
Yhteenveto: Selkeätä
Näkyvyys: enemmän kuin 10 km
2023/02/06 19:50 EFSI 061950Z AUTO 21005KT 170V240 CAVOK M00/M02 Q1029